KBKD

Details ICAO KBKD (BKD)
Name STEPHENS CO
Region United States
Timezone America/Chicago (UTC-5.0)
Plans Departing 3
Arriving 4
Stats Elevation 1,284 ft / 391 m (AMSL)
Location 32.718361° -98.891830°
Runways 3
Magnetic Variation 4.473° E
Sunrise 2018-05-20 11:35:02 UTC / 2018-05-20 06:35:02 Local
Sunset 2018-05-21 01:32:02 UTC / 2018-05-20 20:32:02 Local
Advertisement - Login to hide

Runways

ID Width Length Bearing (true) Bearing (mag) Surface Threshold Offset Overrun Length
04 50 ft / 15 m 2,400 ft / 731 m 44.52° 40.05° Asphalt 0 ft / 0 m 0 ft / 0 m
13 50 ft / 15 m 2,400 ft / 732 m 134.75° 130.28° Asphalt 0 ft / 0 m 0 ft / 0 m
17 100 ft / 30 m 5,013 ft / 1,528 m 179.63° 175.16° Asphalt 0 ft / 0 m 0 ft / 0 m
22 50 ft / 15 m 2,400 ft / 731 m 224.52° 220.05° Asphalt 0 ft / 0 m 0 ft / 0 m
31 50 ft / 15 m 2,400 ft / 732 m 314.75° 310.28° Asphalt 0 ft / 0 m 0 ft / 0 m
35 100 ft / 30 m 5,013 ft / 1,528 m 359.63° 355.16° Asphalt 0 ft / 0 m 0 ft / 0 m

Map

Weather


0- 5 10 15 20 25 30 35+ Temperature / ° C

Clouds and Precipitation
Forecast for 2018-05-21 00:00 UTC. Updated 3 hours ago

Ground ~20,000 ft ~40,000 ft Winds

METAR

KBKD 210135Z AUTO 05005KT 1/4SM HZ VV002 25/15 A3001 RMK AO2 T02460150

TAF

Not found

Frequencies

Unicom 122.80 MHz CTAF/UNICOM
Warning: Do not use this data for real-world aviation or navigation. No guarantee of current accuracy is given.